createdAt,value
2022-09-26T00:01:07.080Z,97804.95
2022-09-26T00:02:08.907Z,97805.68
2022-09-26T00:03:11.558Z,97802.23
2022-09-26T00:04:32.600Z,97798.50
2022-09-26T00:05:34.771Z,97798.07
2022-09-26T00:06:36.934Z,97800.92
2022-09-26T00:07:38.587Z,97799.60
2022-09-26T00:08:40.607Z,97795.47
2022-09-26T00:09:42.263Z,97794.95
2022-09-26T00:10:43.904Z,97792.30
2022-09-26T00:11:46.285Z,97789.80
2022-09-26T00:12:48.041Z,97789.73
2022-09-26T00:13:53.474Z,97787.66
2022-09-26T00:14:55.190Z,97787.57
2022-09-26T00:15:57.824Z,97785.35
2022-09-26T00:17:00.045Z,97784.72
2022-09-26T00:18:01.836Z,97785.92
2022-09-26T00:19:04.791Z,97785.20
2022-09-26T00:20:07.001Z,97784.14
2022-09-26T00:21:14.551Z,97785.60
2022-09-26T00:22:16.262Z,97787.99
2022-09-26T00:23:18.414Z,97787.84
2022-09-26T00:24:20.101Z,97785.23
2022-09-26T00:25:21.802Z,97783.73
2022-09-26T00:26:26.811Z,97779.42
2022-09-26T00:27:28.449Z,97782.86
2022-09-26T00:28:30.497Z,97778.61
2022-09-26T00:29:32.116Z,97779.05
2022-09-26T00:30:37.018Z,97774.27
2022-09-26T00:31:44.295Z,97775.20
2022-09-26T00:32:46.510Z,97776.09
2022-09-26T00:33:48.374Z,97774.06
2022-09-26T00:34:50.644Z,97771.83
2022-09-26T00:35:56.821Z,97771.20
2022-09-26T00:36:59.013Z,97772.09
2022-09-26T00:38:00.702Z,97771.84
2022-09-26T00:39:02.577Z,97771.05
2022-09-26T00:40:04.968Z,97770.56
2022-09-26T00:41:07.726Z,97769.73
2022-09-26T00:42:14.990Z,97764.33
2022-09-26T00:43:32.139Z,97766.98
2022-09-26T00:44:50.094Z,97765.89
2022-09-26T00:45:51.858Z,97765.44
2022-09-26T00:46:53.619Z,97765.88
2022-09-26T00:48:03.825Z,97763.73
2022-09-26T00:49:23.518Z,97764.22
2022-09-26T00:50:31.892Z,97762.69
2022-09-26T00:51:39.499Z,97760.23
2022-09-26T00:52:49.347Z,97756.56
2022-09-26T00:53:54.055Z,97758.20
2022-09-26T00:55:01.346Z,97760.16
2022-09-26T00:56:11.235Z,97758.73
2022-09-26T00:57:19.224Z,97762.77
2022-09-26T00:58:24.531Z,97763.11
2022-09-26T00:59:35.539Z,97765.16
2022-09-26T01:00:42.368Z,97761.73
2022-09-26T01:01:45.234Z,97760.39
2022-09-26T01:02:48.617Z,97759.24
2022-09-26T01:03:52.045Z,97757.52
2022-09-26T01:04:56.538Z,97760.15
2022-09-26T01:06:00.884Z,97762.65
2022-09-26T01:07:08.611Z,97760.41
2022-09-26T01:08:13.264Z,97760.44
2022-09-26T01:09:16.802Z,97760.29
2022-09-26T01:10:18.724Z,97763.86
2022-09-26T01:11:21.823Z,97762.84
2022-09-26T01:12:23.967Z,97762.79
2022-09-26T01:13:27.027Z,97761.14
2022-09-26T01:14:28.797Z,97759.90
2022-09-26T01:15:30.535Z,97758.14
2022-09-26T01:16:34.389Z,97759.56
2022-09-26T01:17:44.333Z,97758.41
2022-09-26T01:18:47.833Z,97762.45
2022-09-26T01:20:10.094Z,97756.44
2022-09-26T01:21:36.228Z,97758.39
2022-09-26T01:23:06.078Z,97755.55
2022-09-26T01:24:37.876Z,97745.77
2022-09-26T01:26:17.404Z,97751.14
2022-09-26T01:27:42.927Z,97751.36
2022-09-26T01:29:27.986Z,97748.98
2022-09-26T01:30:50.932Z,97747.59
2022-09-26T01:32:50.403Z,97751.00
2022-09-26T01:34:24.475Z,97748.98
2022-09-26T01:35:55.350Z,97748.48
2022-09-26T01:37:22.971Z,97747.05
2022-09-26T01:38:43.238Z,97740.81
2022-09-26T01:40:02.536Z,97744.96
2022-09-26T01:41:28.414Z,97741.77
2022-09-26T01:43:13.112Z,97739.15
2022-09-26T01:44:46.759Z,97735.17
2022-09-26T01:46:13.603Z,97737.59
2022-09-26T01:47:25.097Z,97740.40
2022-09-26T01:48:44.461Z,97736.86
2022-09-26T01:50:06.420Z,97737.45
2022-09-26T01:51:36.386Z,97739.09
2022-09-26T01:53:13.555Z,97738.10
2022-09-26T01:54:23.274Z,97735.64
2022-09-26T01:55:36.128Z,97733.57
2022-09-26T01:56:42.275Z,97733.86
2022-09-26T01:58:10.795Z,97734.41
2022-09-26T01:59:33.344Z,97734.70
2022-09-26T02:00:40.955Z,97733.89
2022-09-26T02:01:47.334Z,97736.11
2022-09-26T02:02:51.096Z,97732.58
2022-09-26T02:04:03.204Z,97731.17
2022-09-26T02:05:12.027Z,97733.77
2022-09-26T02:06:23.064Z,97735.91
2022-09-26T02:07:39.059Z,97730.63
2022-09-26T02:08:46.950Z,97732.91
2022-09-26T02:10:02.660Z,97731.52
2022-09-26T02:11:13.609Z,97731.78
2022-09-26T02:12:32.876Z,97724.88
2022-09-26T02:13:44.597Z,97726.55
2022-09-26T02:14:51.241Z,97725.25
2022-09-26T02:16:01.037Z,97725.69
2022-09-26T02:17:11.939Z,97727.84
2022-09-26T02:18:39.533Z,97723.79
2022-09-26T02:19:59.989Z,97725.30
2022-09-26T02:21:07.806Z,97723.10
2022-09-26T02:22:10.421Z,97727.73
2022-09-26T02:23:13.889Z,97725.76
2022-09-26T02:24:16.040Z,97725.44
2022-09-26T02:25:18.053Z,97721.26
2022-09-26T02:26:20.239Z,97721.63
2022-09-26T02:27:22.410Z,97717.58
2022-09-26T02:28:24.137Z,97716.91
2022-09-26T02:29:26.344Z,97718.92
2022-09-26T02:30:29.320Z,97719.61
2022-09-26T02:31:36.915Z,97714.55
2022-09-26T02:32:40.543Z,97715.51
2022-09-26T02:33:42.434Z,97715.55
2022-09-26T02:34:48.278Z,97714.04
2022-09-26T02:35:55.849Z,97714.05
2022-09-26T02:37:01.256Z,97712.92
2022-09-26T02:38:06.929Z,97713.94
2022-09-26T02:39:11.824Z,97709.11
2022-09-26T02:40:56.514Z,97708.95
2022-09-26T02:42:13.281Z,97710.09
2022-09-26T02:44:03.337Z,97705.54
2022-09-26T02:45:23.597Z,97704.73
2022-09-26T02:46:53.700Z,97708.90
2022-09-26T02:48:14.055Z,97704.79
2022-09-26T02:49:45.359Z,97705.55
2022-09-26T02:51:00.794Z,97701.95
2022-09-26T02:52:36.029Z,97703.81
2022-09-26T02:53:55.821Z,97704.30
2022-09-26T02:55:21.995Z,97702.86
2022-09-26T02:56:55.450Z,97704.44
2022-09-26T02:58:18.730Z,97702.27
2022-09-26T02:59:35.615Z,97694.44
2022-09-26T03:01:05.907Z,97697.27
2022-09-26T03:02:21.652Z,97698.44
2022-09-26T03:04:04.849Z,97698.19
2022-09-26T03:05:17.766Z,97701.48
2022-09-26T03:06:28.129Z,97699.91
2022-09-26T03:07:48.824Z,97702.46
2022-09-26T03:08:55.085Z,97701.45
2022-09-26T03:10:03.639Z,97703.09
2022-09-26T03:11:10.854Z,97700.35
2022-09-26T03:12:13.998Z,97703.77
2022-09-26T03:13:18.461Z,97702.32
2022-09-26T03:14:21.244Z,97697.03
2022-09-26T03:15:27.521Z,97695.86
2022-09-26T03:16:35.720Z,97691.45
2022-09-26T03:17:44.604Z,97688.42
2022-09-26T03:19:05.778Z,97683.23
2022-09-26T03:20:14.856Z,97686.36
2022-09-26T03:21:18.362Z,97685.06
2022-09-26T03:22:20.085Z,97684.53
2022-09-26T03:23:24.466Z,97684.70
2022-09-26T03:24:27.747Z,97682.80
2022-09-26T03:25:30.076Z,97684.15
2022-09-26T03:26:41.987Z,97677.10
2022-09-26T03:27:46.305Z,97678.30
2022-09-26T03:28:48.046Z,97679.14
2022-09-26T03:29:50.631Z,97676.35
2022-09-26T03:30:55.882Z,97679.63
2022-09-26T03:32:01.763Z,97677.55
2022-09-26T03:33:03.681Z,97672.23
2022-09-26T03:34:05.638Z,97673.74
2022-09-26T03:35:08.811Z,97670.59
2022-09-26T03:36:10.475Z,97673.11
2022-09-26T03:37:12.409Z,97670.43
2022-09-26T03:38:14.634Z,97669.52
2022-09-26T03:39:21.775Z,97670.27
2022-09-26T03:40:42.336Z,97668.59
2022-09-26T03:42:10.008Z,97666.92
2022-09-26T03:43:13.499Z,97669.77
2022-09-26T03:44:15.951Z,97668.10
2022-09-26T03:45:40.541Z,97667.40
2022-09-26T03:46:52.317Z,97666.81
2022-09-26T03:47:57.693Z,97667.63
2022-09-26T03:48:59.652Z,97668.59
2022-09-26T03:50:01.602Z,97670.20
2022-09-26T03:51:09.254Z,97670.41
2022-09-26T03:52:12.602Z,97670.09
2022-09-26T03:53:14.580Z,97671.28
2022-09-26T03:54:16.620Z,97666.83
2022-09-26T03:55:18.554Z,97667.60
2022-09-26T03:56:21.069Z,97666.48
2022-09-26T03:57:23.117Z,97665.38
2022-09-26T03:58:28.395Z,97666.06
2022-09-26T03:59:30.370Z,97658.41
2022-09-26T04:00:32.280Z,97662.72
2022-09-26T04:01:34.112Z,97665.72
2022-09-26T04:02:36.531Z,97660.10
2022-09-26T04:03:50.847Z,97660.59
2022-09-26T04:04:54.087Z,97660.44
2022-09-26T04:05:55.809Z,97655.04
2022-09-26T04:06:58.961Z,97659.38
2022-09-26T04:08:03.036Z,97657.72
2022-09-26T04:09:05.355Z,97652.35
2022-09-26T04:10:07.785Z,97651.27
2022-09-26T04:11:12.484Z,97649.76
2022-09-26T04:12:14.708Z,97646.69
2022-09-26T04:13:46.501Z,97649.75
2022-09-26T04:14:40.108Z,97647.15
2022-09-26T04:15:42.102Z,97646.13
2022-09-26T04:16:47.534Z,97645.63
2022-09-26T04:18:01.919Z,97643.37
2022-09-26T04:19:04.221Z,97641.98
2022-09-26T04:20:06.391Z,97641.70
2022-09-26T04:21:11.594Z,97638.21
2022-09-26T04:22:13.320Z,97636.86
2022-09-26T04:23:15.670Z,97632.42
2022-09-26T04:24:17.447Z,97634.67
2022-09-26T04:25:19.100Z,97636.50
2022-09-26T04:26:24.253Z,97636.08
2022-09-26T04:27:28.802Z,97634.83
2022-09-26T04:28:33.309Z,97634.17
2022-09-26T04:29:35.011Z,97634.65
2022-09-26T04:30:43.103Z,97631.70
2022-09-26T04:31:45.982Z,97633.90
2022-09-26T04:32:48.415Z,97636.19
2022-09-26T04:34:02.278Z,97636.25
2022-09-26T04:35:04.198Z,97636.45
2022-09-26T04:36:09.353Z,97628.60
2022-09-26T04:37:12.141Z,97625.20
2022-09-26T04:38:13.992Z,97622.48
2022-09-26T04:39:15.843Z,97625.45
2022-09-26T04:40:17.605Z,97621.27
2022-09-26T04:41:30.356Z,97624.58
2022-09-26T04:42:36.980Z,97622.48
2022-09-26T04:43:40.260Z,97622.92
2022-09-26T04:44:44.886Z,97622.52
2022-09-26T04:45:46.724Z,97623.27
2022-09-26T04:46:48.745Z,97620.92
2022-09-26T04:47:51.232Z,97621.00
2022-09-26T04:49:02.540Z,97622.64
2022-09-26T04:50:05.070Z,97625.24
2022-09-26T04:51:07.926Z,97625.58
2022-09-26T04:52:09.702Z,97624.54
2022-09-26T04:53:12.381Z,97626.17
2022-09-26T04:54:20.468Z,97623.84
2022-09-26T04:55:22.949Z,97624.98
2022-09-26T04:56:28.035Z,97624.63
2022-09-26T04:57:29.868Z,97622.71
2022-09-26T04:58:32.674Z,97620.36
2022-09-26T04:59:34.450Z,97622.68
2022-09-26T05:00:47.783Z,97624.16
2022-09-26T05:01:51.421Z,97630.11
2022-09-26T05:02:59.788Z,97623.48
2022-09-26T05:04:01.781Z,97623.40
2022-09-26T05:05:06.830Z,97633.48
2022-09-26T05:06:13.581Z,97629.55
2022-09-26T05:07:16.344Z,97628.91
2022-09-26T05:08:18.109Z,97631.17
2022-09-26T05:09:20.727Z,97632.39
2022-09-26T05:10:28.750Z,97636.16
2022-09-26T05:11:34.273Z,97630.16
2022-09-26T05:12:36.018Z,97632.98
2022-09-26T05:13:38.850Z,97629.98
2022-09-26T05:14:44.347Z,97628.11
2022-09-26T05:15:45.983Z,97622.76
2022-09-26T05:16:47.981Z,97622.16
2022-09-26T05:17:57.552Z,97624.64
2022-09-26T05:18:59.525Z,97623.42
2022-09-26T05:20:04.498Z,97627.30
2022-09-26T05:21:56.145Z,97624.49
2022-09-26T05:22:59.032Z,97623.16
2022-09-26T05:24:19.560Z,97620.32
2022-09-26T05:25:40.412Z,97620.98
2022-09-26T05:26:49.367Z,97622.64
2022-09-26T05:27:53.512Z,97624.73
2022-09-26T05:29:07.715Z,97620.27
2022-09-26T05:30:17.809Z,97620.37
2022-09-26T05:31:19.816Z,97618.71
2022-09-26T05:32:22.256Z,97617.19
2022-09-26T05:33:25.297Z,97616.21
2022-09-26T05:34:27.305Z,97614.25
2022-09-26T05:35:29.146Z,97616.23
2022-09-26T05:36:31.183Z,97614.04
2022-09-26T05:37:33.634Z,97614.30
2022-09-26T05:38:35.540Z,97614.19
2022-09-26T05:39:56.166Z,97610.59
2022-09-26T05:40:58.146Z,97612.95
2022-09-26T05:42:01.122Z,97614.27
2022-09-26T05:43:03.621Z,97610.77
2022-09-26T05:44:05.417Z,97613.46
2022-09-26T05:45:13.015Z,97610.05
2022-09-26T05:46:16.689Z,97612.20
2022-09-26T05:47:22.392Z,97616.08
2022-09-26T05:48:25.485Z,97611.96
2022-09-26T05:49:27.804Z,97610.58
2022-09-26T05:50:29.731Z,97612.12
2022-09-26T05:51:33.498Z,97609.09
2022-09-26T05:52:39.448Z,97605.48
2022-09-26T05:53:44.276Z,97608.19
2022-09-26T05:54:47.648Z,97606.66
2022-09-26T05:56:48.751Z,97609.77
2022-09-26T05:58:10.030Z,97606.98
2022-09-26T05:59:46.942Z,97608.78
2022-09-26T06:01:17.441Z,97608.95
2022-09-26T06:02:21.093Z,97610.48
2022-09-26T06:03:46.788Z,97610.35
2022-09-26T06:04:54.052Z,97609.23
2022-09-26T06:06:44.281Z,97605.84
2022-09-26T06:07:47.150Z,97607.92
2022-09-26T06:09:07.487Z,97603.17
2022-09-26T06:10:41.496Z,97602.06
2022-09-26T06:11:43.184Z,97605.52
2022-09-26T06:12:50.905Z,97605.21
2022-09-26T06:13:53.578Z,97604.17
2022-09-26T06:14:55.268Z,97604.29
2022-09-26T06:16:00.557Z,97607.25
2022-09-26T06:17:02.330Z,97605.41
2022-09-26T06:18:05.243Z,97611.09
2022-09-26T06:19:07.715Z,97613.85
2022-09-26T06:20:10.807Z,97613.34
2022-09-26T06:21:15.086Z,97609.61
2022-09-26T06:22:16.779Z,97609.68
2022-09-26T06:23:18.515Z,97607.60
2022-09-26T06:24:21.256Z,97607.80
2022-09-26T06:25:26.013Z,97608.91
2022-09-26T06:26:30.686Z,97608.72
2022-09-26T06:27:34.931Z,97610.16
2022-09-26T06:28:38.981Z,97614.55
2022-09-26T06:29:40.873Z,97616.89
2022-09-26T06:30:42.625Z,97616.02
2022-09-26T06:31:46.995Z,97617.02
2022-09-26T06:32:53.272Z,97615.26
2022-09-26T06:34:15.707Z,97618.55
2022-09-26T06:36:15.850Z,97616.63
2022-09-26T06:37:17.514Z,97612.05
2022-09-26T06:38:19.187Z,97611.45
2022-09-26T06:39:20.910Z,97614.20
2022-09-26T06:40:22.745Z,97615.02
2022-09-26T06:41:26.518Z,97616.23
2022-09-26T06:42:28.203Z,97615.19
2022-09-26T06:43:49.938Z,97617.59
2022-09-26T06:45:10.672Z,97620.98
2022-09-26T06:47:05.433Z,97616.86
2022-09-26T06:48:13.211Z,97617.05
2022-09-26T06:49:30.952Z,97622.04
2022-09-26T06:50:37.845Z,97622.64
2022-09-26T06:51:39.490Z,97623.50
2022-09-26T06:52:44.085Z,97625.98
2022-09-26T06:53:46.877Z,97624.12
2022-09-26T06:54:56.701Z,97624.95
2022-09-26T06:55:59.490Z,97622.82
2022-09-26T06:57:01.549Z,97616.14
2022-09-26T06:58:03.635Z,97621.42
2022-09-26T06:59:12.992Z,97621.67
2022-09-26T07:00:23.486Z,97616.10
2022-09-26T07:02:06.350Z,97620.80
2022-09-26T07:03:26.833Z,97617.24
2022-09-26T07:04:38.952Z,97611.83
2022-09-26T07:06:03.323Z,97611.73
2022-09-26T07:07:05.618Z,97610.24
2022-09-26T07:08:07.391Z,97610.80
2022-09-26T07:09:12.240Z,97612.36
2022-09-26T07:10:26.280Z,97614.54
2022-09-26T07:11:56.624Z,97610.66
2022-09-26T07:13:05.843Z,97613.90
2022-09-26T07:14:07.582Z,97611.06
2022-09-26T07:15:15.398Z,97615.10
2022-09-26T07:16:18.147Z,97606.73
2022-09-26T07:18:19.190Z,97612.14
2022-09-26T07:19:35.610Z,97611.45
2022-09-26T07:20:45.426Z,97608.52
2022-09-26T07:22:05.537Z,97610.80
2022-09-26T07:23:16.865Z,97610.38
2022-09-26T07:24:19.888Z,97609.63
2022-09-26T07:25:22.182Z,97610.83
2022-09-26T07:26:24.891Z,97611.34
2022-09-26T07:27:26.933Z,97611.31
2022-09-26T07:28:29.275Z,97608.54
2022-09-26T07:29:32.338Z,97612.19
2022-09-26T07:30:34.515Z,97608.55
2022-09-26T07:31:46.329Z,97606.91
2022-09-26T07:33:03.708Z,97607.55
2022-09-26T07:34:25.218Z,97603.36
2022-09-26T07:35:27.368Z,97605.63
2022-09-26T07:36:29.283Z,97603.10
2022-09-26T07:37:32.224Z,97600.27
2022-09-26T07:38:34.598Z,97603.18
2022-09-26T07:39:37.774Z,97598.47
2022-09-26T07:40:43.244Z,97601.64
2022-09-26T07:41:46.110Z,97603.99
2022-09-26T07:43:09.282Z,97605.45
2022-09-26T07:45:51.139Z,97607.42
2022-09-26T07:47:11.258Z,97609.64
2022-09-26T07:48:31.930Z,97602.42
2022-09-26T07:50:23.342Z,97603.34
2022-09-26T07:51:40.007Z,97602.19
2022-09-26T07:52:48.178Z,97603.02
2022-09-26T07:53:49.825Z,97607.36
2022-09-26T07:55:12.632Z,97601.06
2022-09-26T07:56:26.128Z,97607.09
2022-09-26T07:57:35.453Z,97610.01
2022-09-26T07:58:50.576Z,97614.48
2022-09-26T08:00:40.260Z,97609.20
2022-09-26T08:02:30.577Z,97612.54
2022-09-26T08:03:33.169Z,97610.08
2022-09-26T08:04:45.286Z,97607.13
2022-09-26T08:05:47.067Z,97608.22
2022-09-26T08:06:50.193Z,97605.04
2022-09-26T08:07:51.961Z,97602.30
2022-09-26T08:09:12.087Z,97599.10
2022-09-26T08:10:33.671Z,97600.35
2022-09-26T08:11:55.857Z,97600.36
2022-09-26T08:13:16.284Z,97599.84
2022-09-26T08:14:37.476Z,97601.22
2022-09-26T08:16:01.951Z,97598.45
2022-09-26T08:17:04.183Z,97600.31
2022-09-26T08:18:06.025Z,97593.22
2022-09-26T08:19:17.179Z,97597.77
2022-09-26T08:20:19.873Z,97593.20
2022-09-26T08:21:23.148Z,97594.17
2022-09-26T08:22:28.856Z,97589.95
2022-09-26T08:23:30.712Z,97593.15
2022-09-26T08:24:53.377Z,97592.59
2022-09-26T08:26:09.763Z,97591.62
2022-09-26T08:27:22.716Z,97593.79
2022-09-26T08:28:28.524Z,97591.84
2022-09-26T08:29:34.147Z,97588.77
2022-09-26T08:30:37.150Z,97590.09
2022-09-26T08:31:40.069Z,97586.36
2022-09-26T08:32:44.454Z,97587.73
2022-09-26T08:33:49.191Z,97588.16
2022-09-26T08:34:52.567Z,97588.90
2022-09-26T08:36:12.668Z,97584.09
2022-09-26T08:38:02.797Z,97584.71
2022-09-26T08:39:13.315Z,97583.57
2022-09-26T08:41:14.273Z,97581.33
2022-09-26T08:42:58.842Z,97579.87
2022-09-26T08:44:34.382Z,97575.48
2022-09-26T08:46:12.590Z,97575.23
2022-09-26T08:47:34.742Z,97572.00
2022-09-26T08:49:16.629Z,97571.58
2022-09-26T08:50:32.699Z,97575.34
2022-09-26T08:51:42.108Z,97567.34
2022-09-26T08:53:10.406Z,97567.08
2022-09-26T08:54:34.977Z,97565.88
2022-09-26T08:55:43.437Z,97566.56
2022-09-26T08:57:05.878Z,97564.98
2022-09-26T08:58:15.285Z,97563.48
2022-09-26T08:59:29.585Z,97566.16
2022-09-26T09:00:34.425Z,97563.02
2022-09-26T09:01:45.178Z,97563.30
2022-09-26T09:03:04.065Z,97563.39
2022-09-26T09:04:44.812Z,97563.54
2022-09-26T09:05:54.590Z,97563.25
2022-09-26T09:07:11.927Z,97563.43
2022-09-26T09:08:22.765Z,97563.66
2022-09-26T09:10:24.085Z,97558.76
2022-09-26T09:11:51.091Z,97561.84
2022-09-26T09:13:14.889Z,97559.73
2022-09-26T09:14:40.309Z,97558.19
2022-09-26T09:16:12.716Z,97554.27
2022-09-26T09:17:43.027Z,97554.83
2022-09-26T09:19:30.737Z,97555.56
2022-09-26T09:21:09.190Z,97549.19
2022-09-26T09:22:48.920Z,97550.51
2022-09-26T09:24:14.123Z,97547.24
2022-09-26T09:25:29.598Z,97546.03
2022-09-26T09:28:10.466Z,97549.27
2022-09-26T09:29:35.632Z,97547.10
2022-09-26T09:31:02.184Z,97549.05
2022-09-26T09:32:32.337Z,97547.77
2022-09-26T09:33:58.789Z,97550.25
2022-09-26T09:35:29.346Z,97553.97
2022-09-26T09:36:57.777Z,97552.30
2022-09-26T09:39:05.792Z,97555.11
2022-09-26T09:40:35.695Z,97552.89
2022-09-26T09:41:53.729Z,97551.80
2022-09-26T09:43:13.767Z,97553.69
2022-09-26T09:44:34.149Z,97550.52
2022-09-26T09:45:48.301Z,97556.87
2022-09-26T09:46:51.493Z,97557.98
2022-09-26T09:47:53.524Z,97557.58
2022-09-26T09:49:09.375Z,97553.55
2022-09-26T09:50:17.662Z,97550.14
2022-09-26T09:51:25.225Z,97546.67
2022-09-26T09:52:43.027Z,97546.38
2022-09-26T09:54:12.714Z,97542.90
2022-09-26T09:55:38.682Z,97546.36
2022-09-26T09:57:17.226Z,97545.09
2022-09-26T09:58:18.885Z,97545.41
2022-09-26T09:59:42.373Z,97547.29
2022-09-26T10:01:03.758Z,97548.65
2022-09-26T10:02:40.321Z,97544.70
2022-09-26T10:04:05.370Z,97547.83
2022-09-26T10:05:45.296Z,97545.98
2022-09-26T10:06:52.629Z,97546.42
2022-09-26T10:07:59.337Z,97543.77
2022-09-26T10:09:54.176Z,97543.48
2022-09-26T10:11:42.399Z,97545.74
2022-09-26T10:13:27.270Z,97546.11
2022-09-26T10:15:02.388Z,97541.95
2022-09-26T10:16:23.788Z,97544.13
2022-09-26T10:17:31.199Z,97544.69
2022-09-26T10:19:00.821Z,97542.10
2022-09-26T10:20:05.414Z,97543.92
2022-09-26T10:21:16.198Z,97547.47
2022-09-26T10:22:37.340Z,97544.34
2022-09-26T10:23:46.805Z,97545.50
2022-09-26T10:25:08.608Z,97546.47
2022-09-26T10:26:13.727Z,97545.80
2022-09-26T10:27:38.222Z,97546.61
2022-09-26T10:28:57.980Z,97548.95
2022-09-26T10:30:02.117Z,97549.27
2022-09-26T10:31:10.623Z,97545.95
2022-09-26T10:32:45.855Z,97543.95
2022-09-26T10:34:24.284Z,97540.50
2022-09-26T10:35:46.601Z,97539.63
2022-09-26T10:36:50.801Z,97540.59
2022-09-26T10:38:06.203Z,97541.12
2022-09-26T10:39:35.386Z,97542.70
2022-09-26T10:40:51.158Z,97535.77
2022-09-26T10:41:58.461Z,97532.33
2022-09-26T10:43:21.999Z,97536.42
2022-09-26T10:44:28.978Z,97532.06
2022-09-26T10:46:16.469Z,97531.02
2022-09-26T10:47:38.152Z,97531.02
2022-09-26T10:48:48.900Z,97527.38
2022-09-26T10:50:17.687Z,97528.52
2022-09-26T10:51:45.524Z,97529.42
2022-09-26T10:52:57.634Z,97536.03
2022-09-26T10:54:16.322Z,97533.90
2022-09-26T10:55:29.240Z,97537.10
2022-09-26T10:56:41.646Z,97532.80
2022-09-26T10:57:48.664Z,97533.14
2022-09-26T10:58:52.180Z,97534.35
2022-09-26T10:59:59.457Z,97531.70
2022-09-26T11:01:01.517Z,97533.05
2022-09-26T11:02:05.490Z,97529.98
2022-09-26T11:03:16.409Z,97530.79
2022-09-26T11:05:05.442Z,97528.59
2022-09-26T11:06:34.925Z,97531.80
2022-09-26T11:08:38.263Z,97532.96
2022-09-26T11:10:34.251Z,97528.83
2022-09-26T11:11:48.035Z,97527.60
2022-09-26T11:13:00.777Z,97523.64
2022-09-26T11:14:07.546Z,97529.80
2022-09-26T11:15:13.129Z,97528.70
2022-09-26T11:16:20.300Z,97526.63
2022-09-26T11:17:47.894Z,97526.70
2022-09-26T11:19:07.873Z,97524.23
2022-09-26T11:20:35.485Z,97523.88
2022-09-26T11:22:08.033Z,97525.37
2022-09-26T11:23:17.681Z,97523.70
2022-09-26T11:24:37.947Z,97529.45
2022-09-26T11:25:58.160Z,97525.62
2022-09-26T11:27:10.671Z,97520.68
2022-09-26T11:28:34.407Z,97523.77
2022-09-26T11:30:21.811Z,97520.22
2022-09-26T11:31:42.948Z,97518.43
2022-09-26T11:33:17.536Z,97520.16
2022-09-26T11:35:03.102Z,97520.06
2022-09-26T11:36:28.802Z,97518.89
2022-09-26T11:37:45.668Z,97522.38
2022-09-26T11:38:55.972Z,97515.27
2022-09-26T11:40:27.170Z,97517.80
2022-09-26T11:41:38.720Z,97515.27
2022-09-26T11:43:02.252Z,97510.77
2022-09-26T11:44:35.715Z,97514.85
2022-09-26T11:46:17.390Z,97509.75
2022-09-26T11:48:17.022Z,97511.75
2022-09-26T11:50:50.325Z,97504.80
2022-09-26T11:52:29.610Z,97504.55
2022-09-26T11:54:09.517Z,97501.42
2022-09-26T11:55:24.283Z,97497.31
2022-09-26T11:56:47.860Z,97497.24
2022-09-26T11:57:55.464Z,97492.48
2022-09-26T11:59:31.557Z,97494.96
2022-09-26T12:01:16.971Z,97493.93
2022-09-26T12:03:06.813Z,97493.58
2022-09-26T12:04:57.941Z,97491.30
2022-09-26T12:06:01.282Z,97492.67
2022-09-26T12:07:22.354Z,97493.69
2022-09-26T12:09:05.074Z,97489.94
2022-09-26T12:10:33.049Z,97489.59
2022-09-26T12:11:51.159Z,97490.02
2022-09-26T12:13:17.211Z,97489.71
2022-09-26T12:14:38.984Z,97487.67
2022-09-26T12:16:07.001Z,97487.81
2022-09-26T12:17:18.801Z,97487.10
2022-09-26T12:18:43.543Z,97483.90
2022-09-26T12:20:03.110Z,97480.08
2022-09-26T12:21:28.846Z,97481.59
2022-09-26T12:22:49.756Z,97488.33
2022-09-26T12:24:31.178Z,97482.55
2022-09-26T12:25:46.222Z,97482.94
2022-09-26T12:27:04.256Z,97479.20
2022-09-26T12:28:27.578Z,97481.80
2022-09-26T12:29:46.933Z,97482.13
2022-09-26T12:30:58.870Z,97484.40
2022-09-26T12:32:27.347Z,97481.35
2022-09-26T12:33:49.738Z,97479.92
2022-09-26T12:35:32.002Z,97475.20
2022-09-26T12:36:54.562Z,97477.49
2022-09-26T12:38:20.662Z,97476.95
2022-09-26T12:39:40.947Z,97475.54
2022-09-26T12:40:53.716Z,97471.66
2022-09-26T12:42:13.882Z,97469.27
2022-09-26T12:43:44.642Z,97468.25
2022-09-26T12:45:20.082Z,97464.82
2022-09-26T12:46:59.253Z,97465.91
2022-09-26T12:48:35.768Z,97465.79
2022-09-26T12:50:08.183Z,97467.39
2022-09-26T12:51:32.767Z,97463.19
2022-09-26T12:53:02.917Z,97462.02
2022-09-26T12:54:40.213Z,97461.20
2022-09-26T12:55:47.542Z,97461.82
2022-09-26T12:57:00.966Z,97462.14
2022-09-26T12:58:37.957Z,97464.20
2022-09-26T13:00:12.562Z,97456.75
2022-09-26T13:01:44.952Z,97457.73
2022-09-26T13:03:10.479Z,97455.98
2022-09-26T13:04:39.956Z,97454.02
2022-09-26T13:06:09.575Z,97449.23
2022-09-26T13:07:42.342Z,97447.19
2022-09-26T13:09:24.115Z,97452.98
2022-09-26T13:10:40.906Z,97452.39
2022-09-26T13:11:59.517Z,97452.97
2022-09-26T13:13:47.674Z,97453.19
2022-09-26T13:15:00.803Z,97450.55
2022-09-26T13:16:27.555Z,97454.98
2022-09-26T13:17:46.042Z,97450.59
2022-09-26T13:18:56.551Z,97450.33
2022-09-26T13:20:14.643Z,97450.67
2022-09-26T13:21:27.077Z,97448.17
2022-09-26T13:22:44.357Z,97448.23
2022-09-26T13:24:01.124Z,97442.83
2022-09-26T13:25:11.498Z,97440.71
2022-09-26T13:26:43.725Z,97438.64
2022-09-26T13:28:09.207Z,97437.23
2022-09-26T13:29:26.999Z,97428.23
2022-09-26T13:30:35.692Z,97430.63
2022-09-26T13:31:56.106Z,97429.97
2022-09-26T13:33:20.853Z,97430.38
2022-09-26T13:34:37.498Z,97427.57
2022-09-26T13:35:47.791Z,97431.11
2022-09-26T13:36:51.620Z,97429.88
2022-09-26T13:38:15.427Z,97432.20
2022-09-26T13:39:29.948Z,97430.11
2022-09-26T13:40:55.569Z,97429.96
2022-09-26T13:42:17.908Z,97428.25
2022-09-26T13:43:47.675Z,97431.09
2022-09-26T13:45:02.458Z,97426.30
2022-09-26T13:46:20.317Z,97428.04
2022-09-26T13:47:41.457Z,97430.15
2022-09-26T13:49:01.116Z,97430.80
2022-09-26T13:50:23.305Z,97430.23
2022-09-26T13:51:40.136Z,97430.33
2022-09-26T13:53:09.961Z,97424.46
2022-09-26T13:54:27.853Z,97427.00
2022-09-26T13:55:30.335Z,97425.35
2022-09-26T13:56:35.085Z,97422.48
2022-09-26T13:58:06.914Z,97421.60
2022-09-26T13:59:14.736Z,97421.92
2022-09-26T14:00:31.475Z,97421.88
2022-09-26T14:01:33.668Z,97426.00
2022-09-26T14:02:35.429Z,97422.97
2022-09-26T14:03:38.918Z,97423.70
2022-09-26T14:04:40.727Z,97425.52
2022-09-26T14:05:42.246Z,97422.19
2022-09-26T14:07:24.084Z,97422.66
2022-09-26T14:08:44.246Z,97429.54
2022-09-26T14:10:04.001Z,97427.73
2022-09-26T14:11:12.166Z,97429.71
2022-09-26T14:12:20.226Z,97427.17
2022-09-26T14:13:37.261Z,97427.27
2022-09-26T14:14:46.298Z,97427.33
2022-09-26T14:15:48.250Z,97424.23
2022-09-26T14:16:53.679Z,97424.95
2022-09-26T14:18:08.457Z,97426.23
2022-09-26T14:19:18.848Z,97423.09
2022-09-26T14:20:27.293Z,97425.49
2022-09-26T14:21:39.811Z,97427.59
2022-09-26T14:22:52.641Z,97431.74
2022-09-26T14:24:32.047Z,97431.91
2022-09-26T14:25:45.770Z,97438.54
2022-09-26T14:27:26.093Z,97440.52
2022-09-26T14:28:34.929Z,97435.11
2022-09-26T14:29:39.340Z,97440.22
2022-09-26T14:31:13.303Z,97444.27
2022-09-26T14:32:43.465Z,97444.20
2022-09-26T14:33:46.101Z,97440.23
2022-09-26T14:34:57.172Z,97443.14
2022-09-26T14:36:25.535Z,97441.35
2022-09-26T14:37:41.484Z,97437.25
2022-09-26T14:38:48.406Z,97434.11
2022-09-26T14:40:34.517Z,97431.00